Senai International Airport Senai MY
ICAO: WMKJ
IATA: JHB
Category: Medium
Scheduled Services: Yes

Elevation: 135 ft
TransAlt. 11000 ft.

Airport Communications:
LUMPUR CON:132.2
JOHOR TWR:124.7
ATIS:126.6
JOHOR TWR:121.8
JOHOR TWR:122.5

WMKJ Zoom In..

If you have problems with the map follow the link
https://www.worldairports.se/pages/airport.php?
ICAO=WMKJ

Runways:

(A) RW 16 length 12467 ft width 148 ft
ILS 109.90 / hdg 159

(B) RW 34 length 12467 ft width 148 ft
---- / hdg 339

Location; WMKJ
Day. 14 / Time. 08.00 Zulu
* QNH: 1008
* Temperature: 28° c. 82.4°f.
* Wind from: 050° Speed 07 kn.
Dewpoint: 25° c.
Visibility: 10 km or more.
Clouds: Few 1600 ft.
Clouds: Scattered 13000 ft.
Clouds: Broken 28000 ft.

WMKJ 140800Z 05007KT 350V100 9999 FEW016CB SCT130 BKN280 28/25 Q1008 RETS


Wind From 050°
Speed 07 kn.

 
 
jpsmedia worldairports.se 2019   terms of use